createdAt,value
2022-12-12T00:01:20.146Z,23.35
2022-12-12T00:03:48.177Z,27.60
2022-12-12T00:06:16.418Z,25.52
2022-12-12T00:08:44.086Z,28.25
2022-12-12T00:11:12.376Z,25.02
2022-12-12T00:13:40.533Z,25.75
2022-12-12T00:16:09.055Z,26.52
2022-12-12T00:18:37.202Z,24.52
2022-12-12T00:21:11.521Z,26.02
2022-12-12T00:23:39.905Z,23.45
2022-12-12T00:26:15.025Z,25.48
2022-12-12T00:28:42.618Z,29.73
2022-12-12T00:31:10.221Z,26.50
2022-12-12T00:33:38.112Z,27.55
2022-12-12T00:36:06.476Z,26.15
2022-12-12T00:38:34.233Z,23.27
2022-12-12T00:41:02.740Z,25.25
2022-12-12T00:43:30.580Z,26.30
2022-12-12T00:46:00.132Z,26.63
2022-12-12T00:48:28.749Z,25.55
2022-12-12T00:50:57.232Z,26.50
2022-12-12T00:53:25.128Z,24.88
2022-12-12T00:55:59.164Z,25.60
2022-12-12T00:58:27.384Z,23.90
2022-12-12T01:00:54.970Z,25.33
2022-12-12T01:03:23.017Z,25.08
2022-12-12T01:05:50.629Z,24.15
2022-12-12T01:08:18.417Z,26.23
2022-12-12T01:10:46.093Z,25.05
2022-12-12T01:13:13.716Z,23.33
2022-12-12T01:15:41.311Z,25.77
2022-12-12T01:18:08.935Z,25.58
2022-12-12T01:20:36.817Z,25.75
2022-12-12T01:23:04.424Z,22.40
2022-12-12T01:25:32.047Z,22.58
2022-12-12T01:28:00.145Z,22.98
2022-12-12T01:30:28.213Z,23.98
2022-12-12T01:32:56.049Z,21.48
2022-12-12T01:35:24.367Z,24.25
2022-12-12T01:37:52.215Z,23.27
2022-12-12T01:40:27.678Z,23.38
2022-12-12T01:42:57.483Z,22.25
2022-12-12T01:45:59.706Z,22.15
2022-12-12T01:48:31.937Z,23.83
2022-12-12T01:51:03.896Z,24.15
2022-12-12T01:53:33.187Z,24.90
2022-12-12T01:56:05.097Z,24.33
2022-12-12T01:58:34.317Z,25.15
2022-12-12T02:01:02.395Z,22.00
2022-12-12T02:03:30.484Z,26.45
2022-12-12T02:06:02.610Z,26.55
2022-12-12T02:08:31.312Z,26.88
2022-12-12T02:10:59.293Z,29.40
2022-12-12T02:13:30.917Z,22.95
2022-12-12T02:16:25.756Z,28.98
2022-12-12T02:19:11.699Z,24.58
2022-12-12T02:22:07.226Z,24.38
2022-12-12T02:25:05.243Z,24.95
2022-12-12T02:28:03.899Z,23.10
2022-12-12T02:30:45.682Z,21.70
2022-12-12T02:33:42.591Z,23.80
2022-12-12T02:36:39.071Z,26.02
2022-12-12T02:39:36.166Z,22.25
2022-12-12T02:42:14.874Z,23.08
2022-12-12T02:44:56.991Z,21.67
2022-12-12T02:47:35.638Z,22.90
2022-12-12T02:50:18.624Z,19.33
2022-12-12T02:52:47.833Z,19.10
2022-12-12T02:55:16.345Z,20.48
2022-12-12T02:57:44.886Z,19.25
2022-12-12T03:00:18.073Z,20.67
2022-12-12T03:03:20.322Z,19.45
2022-12-12T03:06:18.727Z,20.30
2022-12-12T03:08:55.093Z,18.73
2022-12-12T03:11:42.199Z,20.17
2022-12-12T03:14:15.912Z,17.73
2022-12-12T03:17:01.614Z,18.73
2022-12-12T03:19:56.274Z,18.42
2022-12-12T03:22:34.687Z,19.63
2022-12-12T03:25:09.260Z,17.15
2022-12-12T03:27:52.564Z,17.30
2022-12-12T03:30:20.925Z,18.85
2022-12-12T03:32:58.624Z,19.23
2022-12-12T03:35:36.139Z,18.27
2022-12-12T03:38:17.821Z,16.10
2022-12-12T03:40:52.730Z,17.38
2022-12-12T03:43:37.099Z,17.63
2022-12-12T03:46:25.388Z,17.33
2022-12-12T03:49:06.128Z,18.67
2022-12-12T03:51:40.116Z,19.23
2022-12-12T03:54:16.456Z,18.55
2022-12-12T03:57:08.004Z,16.30
2022-12-12T03:59:50.820Z,18.73
2022-12-12T04:02:33.427Z,16.35
2022-12-12T04:05:18.107Z,17.77
2022-12-12T04:07:52.387Z,18.90
2022-12-12T04:10:42.528Z,17.98
2022-12-12T04:13:10.208Z,18.08
2022-12-12T04:15:37.825Z,19.20
2022-12-12T04:18:30.392Z,19.10
2022-12-12T04:21:42.502Z,20.13
2022-12-12T04:24:31.122Z,18.48
2022-12-12T04:27:02.718Z,17.98
2022-12-12T04:29:56.072Z,18.20
2022-12-12T04:32:45.310Z,19.90
2022-12-12T04:35:31.057Z,17.52
2022-12-12T04:38:07.709Z,18.73
2022-12-12T04:40:45.105Z,19.40
2022-12-12T04:43:21.186Z,19.48
2022-12-12T04:45:56.705Z,20.33
2022-12-12T04:48:33.385Z,20.15
2022-12-12T04:51:06.839Z,17.10
2022-12-12T04:53:45.111Z,18.23
2022-12-12T04:56:17.181Z,17.30
2022-12-12T04:58:45.060Z,16.77
2022-12-12T05:01:37.318Z,17.88
2022-12-12T05:04:24.583Z,17.27
2022-12-12T05:07:06.572Z,18.63
2022-12-12T05:09:35.686Z,18.50
2022-12-12T05:12:03.605Z,16.30
2022-12-12T05:14:32.233Z,17.67
2022-12-12T05:17:06.857Z,18.02
2022-12-12T05:19:35.330Z,17.25
2022-12-12T05:22:03.281Z,17.95
2022-12-12T05:24:31.350Z,19.08
2022-12-12T05:27:01.151Z,17.70
2022-12-12T05:29:32.335Z,19.55
2022-12-12T05:32:02.335Z,20.55
2022-12-12T05:34:30.712Z,19.05
2022-12-12T05:36:58.457Z,18.92
2022-12-12T05:39:26.019Z,18.83
2022-12-12T05:41:56.170Z,19.73
2022-12-12T05:44:23.962Z,19.48
2022-12-12T05:46:51.574Z,19.02
2022-12-12T05:49:19.305Z,19.13
2022-12-12T05:51:46.958Z,18.73
2022-12-12T05:54:14.684Z,20.58
2022-12-12T05:56:42.539Z,19.75
2022-12-12T05:59:10.518Z,19.80
2022-12-12T06:01:38.362Z,22.45
2022-12-12T06:04:06.144Z,20.23
2022-12-12T06:06:34.090Z,20.48
2022-12-12T06:09:02.639Z,21.77
2022-12-12T06:11:30.376Z,21.40
2022-12-12T06:14:01.325Z,21.40
2022-12-12T06:16:29.216Z,19.55
2022-12-12T06:18:56.940Z,22.45
2022-12-12T06:21:24.625Z,20.90
2022-12-12T06:23:52.514Z,21.05
2022-12-12T06:26:21.569Z,19.55
2022-12-12T06:28:49.444Z,18.43
2022-12-12T06:31:17.762Z,20.20
2022-12-12T06:33:45.473Z,22.15
2022-12-12T06:36:24.399Z,20.67
2022-12-12T06:38:53.389Z,20.33
2022-12-12T06:41:21.746Z,20.63
2022-12-12T06:43:49.544Z,22.25
2022-12-12T06:46:22.521Z,20.42
2022-12-12T06:48:50.518Z,23.17
2022-12-12T06:51:26.481Z,20.25
2022-12-12T06:53:55.214Z,22.45
2022-12-12T06:56:24.861Z,22.20
2022-12-12T06:58:54.738Z,19.95
2022-12-12T07:03:52.241Z,21.38
2022-12-12T07:06:24.104Z,19.77
2022-12-12T07:09:04.683Z,21.45
2022-12-12T07:11:33.634Z,22.70
2022-12-12T07:14:03.923Z,21.87
2022-12-12T07:16:31.816Z,22.63
2022-12-12T07:18:59.511Z,23.70
2022-12-12T07:21:27.134Z,22.75
2022-12-12T07:23:56.958Z,23.48
2022-12-12T07:26:25.398Z,22.67
2022-12-12T07:28:53.283Z,21.17
2022-12-12T07:31:26.533Z,22.70
2022-12-12T07:33:54.972Z,20.92
2022-12-12T07:36:26.113Z,21.50
2022-12-12T07:38:53.879Z,22.55
2022-12-12T07:41:22.119Z,21.75
2022-12-12T07:43:51.471Z,19.38
2022-12-12T07:46:25.592Z,22.75
2022-12-12T07:48:55.617Z,20.85
2022-12-12T07:51:26.428Z,18.67
2022-12-12T07:53:54.393Z,20.27
2022-12-12T07:56:23.416Z,21.13
2022-12-12T07:58:53.390Z,19.40
2022-12-12T08:01:26.497Z,20.40
2022-12-12T08:03:55.435Z,21.65
2022-12-12T08:06:26.138Z,20.90
2022-12-12T08:08:57.575Z,22.05
2022-12-12T08:11:26.330Z,22.52
2022-12-12T08:13:54.480Z,20.02
2022-12-12T08:16:29.145Z,20.98
2022-12-12T08:18:57.886Z,21.02
2022-12-12T08:21:29.069Z,20.67
2022-12-12T08:24:02.542Z,18.88
2022-12-12T08:26:33.801Z,19.00
2022-12-12T08:29:01.596Z,18.45
2022-12-12T08:31:29.978Z,19.20
2022-12-12T08:33:59.901Z,19.27
2022-12-12T08:39:04.042Z,17.60
2022-12-12T08:41:33.874Z,17.80
2022-12-12T08:44:02.076Z,18.00
2022-12-12T08:46:33.067Z,18.00
2022-12-12T08:49:03.718Z,18.73
2022-12-12T08:51:31.930Z,19.23
2022-12-12T08:53:59.780Z,17.30
2022-12-12T08:56:27.636Z,17.17
2022-12-12T08:59:00.686Z,18.85
2022-12-12T09:01:28.769Z,18.65
2022-12-12T09:03:57.813Z,20.48
2022-12-12T09:06:26.401Z,21.75
2022-12-12T09:08:55.544Z,19.30
2022-12-12T09:11:24.277Z,20.40
2022-12-12T09:13:52.762Z,20.48
2022-12-12T09:16:22.197Z,20.80
2022-12-12T09:18:49.797Z,21.30
2022-12-12T09:21:18.205Z,19.65
2022-12-12T09:23:48.423Z,21.27
2022-12-12T09:26:17.975Z,23.38
2022-12-12T09:31:13.902Z,23.40
2022-12-12T09:33:46.349Z,21.50
2022-12-12T09:36:14.982Z,21.10
2022-12-12T09:38:42.740Z,22.25
2022-12-12T09:41:10.451Z,22.25
2022-12-12T09:43:53.713Z,20.83
2022-12-12T09:46:44.149Z,24.48
2022-12-12T09:49:14.767Z,23.23
2022-12-12T09:51:47.493Z,21.25
2022-12-12T09:54:21.974Z,21.17
2022-12-12T09:56:58.965Z,21.67
2022-12-12T09:59:52.248Z,21.17
2022-12-12T10:02:51.493Z,20.90
2022-12-12T10:05:26.829Z,19.13
2022-12-12T10:08:13.411Z,23.38
2022-12-12T10:10:48.544Z,20.63
2022-12-12T10:13:23.578Z,18.55
2022-12-12T10:16:14.693Z,21.33
2022-12-12T10:18:48.687Z,19.63
2022-12-12T10:21:22.980Z,20.00
2022-12-12T10:23:57.030Z,20.20
2022-12-12T10:26:28.008Z,19.83
2022-12-12T10:29:12.307Z,19.73
2022-12-12T10:31:52.509Z,19.63
2022-12-12T10:34:44.250Z,17.98
2022-12-12T10:37:20.974Z,20.40
2022-12-12T10:39:59.033Z,22.02
2022-12-12T10:42:38.713Z,20.38
2022-12-12T10:45:18.266Z,20.85
2022-12-12T10:47:46.607Z,22.60
2022-12-12T10:50:22.783Z,19.75
2022-12-12T10:52:50.427Z,21.95
2022-12-12T10:55:41.356Z,20.85
2022-12-12T10:58:09.236Z,20.35
2022-12-12T11:00:42.238Z,21.58
2022-12-12T11:03:19.952Z,19.92
2022-12-12T11:05:48.317Z,20.08
2022-12-12T11:08:25.504Z,18.85
2022-12-12T11:11:10.110Z,20.30
2022-12-12T11:14:05.210Z,19.45
2022-12-12T11:16:45.413Z,18.42
2022-12-12T11:19:18.030Z,17.65
2022-12-12T11:21:46.851Z,18.13
2022-12-12T11:24:30.068Z,18.48
2022-12-12T11:27:06.763Z,19.58
2022-12-12T11:29:34.657Z,19.27
2022-12-12T11:32:03.593Z,17.73
2022-12-12T11:34:35.971Z,19.03
2022-12-12T11:37:04.098Z,19.05
2022-12-12T11:39:42.468Z,16.80
2022-12-12T11:42:15.926Z,17.45
2022-12-12T11:44:47.886Z,15.40
2022-12-12T11:47:24.642Z,16.67
2022-12-12T11:49:56.659Z,17.20
2022-12-12T11:52:30.544Z,19.48
2022-12-12T11:54:59.605Z,17.77
2022-12-12T11:58:00.296Z,17.88
2022-12-12T12:00:45.962Z,17.52
2022-12-12T12:03:51.145Z,14.63
2022-12-12T12:06:32.609Z,15.05
2022-12-12T12:09:06.646Z,17.38
2022-12-12T12:11:46.083Z,14.80
2022-12-12T12:17:09.714Z,16.08
2022-12-12T12:19:50.703Z,16.50
2022-12-12T12:22:30.086Z,17.88
2022-12-12T12:25:00.746Z,16.15
2022-12-12T12:27:46.944Z,17.27
2022-12-12T12:30:23.356Z,17.20
2022-12-12T12:33:08.653Z,17.70
2022-12-12T12:35:56.535Z,17.30
2022-12-12T12:38:37.013Z,16.80
2022-12-12T12:41:22.774Z,17.42
2022-12-12T12:43:59.122Z,16.58
2022-12-12T12:46:36.013Z,18.17
2022-12-12T12:49:14.700Z,18.55
2022-12-12T12:51:55.637Z,19.58
2022-12-12T12:54:42.292Z,18.25
2022-12-12T12:57:35.177Z,18.70
2022-12-12T13:00:15.961Z,20.20
2022-12-12T13:02:56.041Z,18.17
2022-12-12T13:05:32.622Z,16.75
2022-12-12T13:08:00.357Z,18.38
2022-12-12T13:10:29.882Z,19.10
2022-12-12T13:13:22.995Z,16.70
2022-12-12T13:16:05.913Z,15.57
2022-12-12T13:18:45.022Z,15.43
2022-12-12T13:21:25.458Z,15.48
2022-12-12T13:24:12.447Z,14.45
2022-12-12T13:26:57.604Z,13.57
2022-12-12T13:29:39.877Z,12.75
2022-12-12T13:32:19.471Z,13.20
2022-12-12T13:34:52.277Z,11.93
2022-12-12T13:37:22.518Z,13.05
2022-12-12T13:40:04.814Z,14.65
2022-12-12T13:42:54.766Z,13.43
2022-12-12T13:45:34.500Z,14.18
2022-12-12T13:50:31.735Z,15.63
2022-12-12T13:53:10.837Z,15.57
2022-12-12T13:55:39.104Z,12.85
2022-12-12T13:58:21.016Z,14.45
2022-12-12T14:01:10.542Z,14.48
2022-12-12T14:03:38.519Z,14.68
2022-12-12T14:06:10.983Z,15.15
2022-12-12T14:08:47.703Z,14.35
2022-12-12T14:11:28.734Z,14.85
2022-12-12T14:14:19.433Z,15.60
2022-12-12T14:16:55.533Z,14.60
2022-12-12T14:19:36.732Z,12.05
2022-12-12T14:22:04.687Z,12.40
2022-12-12T14:24:35.320Z,11.63
2022-12-12T14:27:05.469Z,12.32
2022-12-12T14:29:34.996Z,13.82
2022-12-12T14:32:11.978Z,12.30
2022-12-12T14:35:06.637Z,13.55
2022-12-12T14:37:51.869Z,10.93
2022-12-12T14:40:31.230Z,11.27
2022-12-12T14:43:21.349Z,9.88
2022-12-12T14:45:50.270Z,8.60
2022-12-12T14:48:22.229Z,9.85
2022-12-12T14:51:26.063Z,10.15
2022-12-12T14:54:00.335Z,10.88
2022-12-12T14:56:29.713Z,9.75
2022-12-12T14:59:00.500Z,9.65
2022-12-12T15:01:33.684Z,11.05
2022-12-12T15:04:10.173Z,10.45
2022-12-12T15:06:41.713Z,10.55
2022-12-12T15:09:22.649Z,10.18
2022-12-12T15:11:51.764Z,10.73
2022-12-12T15:14:27.737Z,10.38
2022-12-12T15:16:55.446Z,9.55
2022-12-12T15:19:36.853Z,9.77
2022-12-12T15:22:16.184Z,11.43
2022-12-12T15:24:44.572Z,10.18
2022-12-12T15:27:18.689Z,10.55
2022-12-12T15:29:46.517Z,11.27
2022-12-12T15:32:20.733Z,10.60
2022-12-12T15:35:19.122Z,10.20
2022-12-12T15:38:01.940Z,13.57
2022-12-12T15:40:34.232Z,12.40
2022-12-12T15:43:06.431Z,13.00
2022-12-12T15:45:37.993Z,12.95
2022-12-12T15:48:06.961Z,12.05
2022-12-12T15:50:43.618Z,11.27
2022-12-12T15:53:29.952Z,13.57
2022-12-12T15:56:09.147Z,12.88
2022-12-12T15:58:41.847Z,14.77
2022-12-12T16:01:21.796Z,10.95
2022-12-12T16:04:13.225Z,10.90
2022-12-12T16:06:45.316Z,10.98
2022-12-12T16:09:18.753Z,12.43
2022-12-12T16:11:54.410Z,12.70
2022-12-12T16:14:41.157Z,10.00
2022-12-12T16:17:25.881Z,9.82
2022-12-12T16:20:02.292Z,11.85
2022-12-12T16:23:08.905Z,12.25
2022-12-12T16:25:37.061Z,10.82
2022-12-12T16:28:10.536Z,10.90
2022-12-12T16:30:41.261Z,11.73
2022-12-12T16:33:14.483Z,10.13
2022-12-12T16:35:42.316Z,10.52
2022-12-12T16:38:17.017Z,10.32
2022-12-12T16:40:47.903Z,10.88
2022-12-12T16:43:19.305Z,10.60
2022-12-12T16:45:49.539Z,8.98
2022-12-12T16:48:22.845Z,9.65
2022-12-12T16:50:54.839Z,10.50
2022-12-12T16:53:22.444Z,8.13
2022-12-12T16:55:52.153Z,8.45
2022-12-12T17:00:52.787Z,10.40
2022-12-12T17:03:21.955Z,11.32
2022-12-12T17:05:51.292Z,11.00
2022-12-12T17:08:19.632Z,10.52
2022-12-12T17:10:49.663Z,13.00
2022-12-12T17:13:22.047Z,12.40
2022-12-12T17:15:51.734Z,11.80
2022-12-12T17:20:48.015Z,11.77
2022-12-12T17:23:30.279Z,12.15
2022-12-12T17:26:03.689Z,11.35
2022-12-12T17:28:34.048Z,10.43
2022-12-12T17:33:29.591Z,11.02
2022-12-12T17:36:07.004Z,10.70
2022-12-12T17:38:35.095Z,12.32
2022-12-12T17:41:04.900Z,11.27
2022-12-12T17:43:32.791Z,11.88
2022-12-12T17:46:04.761Z,12.57
2022-12-12T17:48:35.014Z,12.40
2022-12-12T17:51:05.251Z,11.63
2022-12-12T17:53:38.463Z,12.05
2022-12-12T17:56:15.288Z,10.48
2022-12-12T17:58:44.830Z,11.65
2022-12-12T18:01:20.858Z,12.07
2022-12-12T18:03:49.123Z,11.93
2022-12-12T18:06:18.962Z,12.60
2022-12-12T18:08:47.080Z,10.15
2022-12-12T18:11:23.495Z,12.40
2022-12-12T18:13:53.033Z,13.48
2022-12-12T18:16:23.871Z,14.35
2022-12-12T18:18:52.320Z,13.45
2022-12-12T18:24:13.910Z,13.20
2022-12-12T18:26:42.534Z,14.95
2022-12-12T18:29:12.943Z,14.98
2022-12-12T18:31:40.610Z,15.48
2022-12-12T18:34:08.286Z,13.40
2022-12-12T18:36:37.480Z,12.60
2022-12-12T18:39:07.090Z,13.20
2022-12-12T18:41:38.850Z,14.25
2022-12-12T18:44:09.012Z,15.13
2022-12-12T18:46:42.399Z,13.50
2022-12-12T18:49:13.871Z,12.40
2022-12-12T18:51:41.914Z,12.43
2022-12-12T18:54:15.526Z,12.30
2022-12-12T18:56:45.927Z,13.02
2022-12-12T19:01:41.586Z,10.38
2022-12-12T19:04:14.158Z,12.57
2022-12-12T19:06:44.759Z,10.48
2022-12-12T19:09:15.616Z,11.45
2022-12-12T19:11:44.343Z,11.10
2022-12-12T19:14:13.525Z,11.90
2022-12-12T19:16:42.586Z,13.45
2022-12-12T19:19:12.212Z,11.77
2022-12-12T19:21:44.454Z,11.82
2022-12-12T19:24:12.852Z,12.82
2022-12-12T19:26:43.692Z,11.75
2022-12-12T19:29:18.287Z,13.30
2022-12-12T19:31:45.979Z,12.05
2022-12-12T19:34:16.924Z,10.67
2022-12-12T19:36:50.223Z,12.27
2022-12-12T19:39:17.870Z,12.05
2022-12-12T19:41:46.155Z,11.98
2022-12-12T19:44:14.868Z,12.82
2022-12-12T19:46:45.596Z,12.82
2022-12-12T19:49:15.458Z,12.80
2022-12-12T19:54:18.178Z,13.15
2022-12-12T19:56:46.742Z,15.85
2022-12-12T19:59:16.886Z,13.45
2022-12-12T20:01:45.872Z,15.32
2022-12-12T20:04:15.870Z,11.80
2022-12-12T20:06:47.620Z,12.55
2022-12-12T20:09:22.571Z,14.30
2022-12-12T20:11:50.965Z,13.55
2022-12-12T20:14:21.493Z,13.35
2022-12-12T20:16:52.109Z,13.75
2022-12-12T20:19:20.783Z,14.35
2022-12-12T20:22:04.810Z,15.07
2022-12-12T20:24:34.046Z,12.63
2022-12-12T20:27:03.807Z,13.02
2022-12-12T20:29:32.291Z,14.80
2022-12-12T20:32:01.267Z,13.45
2022-12-12T20:34:29.509Z,13.90
2022-12-12T20:36:57.378Z,11.68
2022-12-12T20:39:26.109Z,12.25
2022-12-12T20:41:54.644Z,12.65
2022-12-12T20:44:25.709Z,13.05
2022-12-12T20:46:53.733Z,12.75
2022-12-12T20:49:23.936Z,12.25
2022-12-12T20:51:59.683Z,12.18
2022-12-12T20:54:29.395Z,12.85
2022-12-12T20:56:58.840Z,12.43
2022-12-12T20:59:27.361Z,12.98
2022-12-12T21:01:58.166Z,11.48
2022-12-12T21:04:26.162Z,12.77
2022-12-12T21:06:54.241Z,13.40
2022-12-12T21:09:26.508Z,13.40
2022-12-12T21:11:56.933Z,11.85
2022-12-12T21:14:26.783Z,11.35
2022-12-12T21:16:54.983Z,12.30
2022-12-12T21:19:23.421Z,11.13
2022-12-12T21:21:51.922Z,11.70
2022-12-12T21:24:20.514Z,10.82
2022-12-12T21:26:48.891Z,11.37
2022-12-12T21:29:17.161Z,11.45
2022-12-12T21:31:51.025Z,10.70
2022-12-12T21:34:23.672Z,11.50
2022-12-12T21:36:53.165Z,11.43
2022-12-12T21:39:23.085Z,11.07
2022-12-12T21:41:51.495Z,12.05
2022-12-12T21:44:20.537Z,11.65
2022-12-12T21:46:48.491Z,11.55
2022-12-12T21:49:28.687Z,12.32
2022-12-12T21:52:02.045Z,10.57
2022-12-12T21:54:30.781Z,12.45
2022-12-12T21:56:59.670Z,12.80
2022-12-12T21:59:27.505Z,13.20
2022-12-12T22:02:00.218Z,12.75
2022-12-12T22:04:28.495Z,12.00
2022-12-12T22:06:59.747Z,13.13
2022-12-12T22:09:27.621Z,13.80
2022-12-12T22:12:03.065Z,13.55
2022-12-12T22:14:33.913Z,12.48
2022-12-12T22:17:03.868Z,11.88
2022-12-12T22:19:32.002Z,13.23
2022-12-12T22:21:59.684Z,12.75
2022-12-12T22:24:27.403Z,12.85
2022-12-12T22:26:54.993Z,12.90
2022-12-12T22:29:22.719Z,13.27
2022-12-12T22:31:52.469Z,12.68
2022-12-12T22:34:23.701Z,12.07
2022-12-12T22:36:52.221Z,13.98
2022-12-12T22:39:24.933Z,13.60
2022-12-12T22:41:55.184Z,13.27
2022-12-12T22:44:24.613Z,12.68
2022-12-12T22:46:54.755Z,12.85
2022-12-12T22:49:27.511Z,13.50
2022-12-12T22:51:57.563Z,13.82
2022-12-12T22:54:26.198Z,13.85
2022-12-12T22:56:54.220Z,13.05
2022-12-12T22:59:21.921Z,12.73
2022-12-12T23:01:49.754Z,13.05
2022-12-12T23:04:17.619Z,13.40
2022-12-12T23:06:45.613Z,12.80
2022-12-12T23:09:16.614Z,12.77
2022-12-12T23:11:45.218Z,13.35
2022-12-12T23:14:16.234Z,12.37
2022-12-12T23:16:44.563Z,13.77
2022-12-12T23:19:15.139Z,12.65
2022-12-12T23:21:43.036Z,13.75
2022-12-12T23:24:11.093Z,13.00
2022-12-12T23:26:39.174Z,13.07
2022-12-12T23:29:09.221Z,14.32
2022-12-12T23:31:38.661Z,14.25
2022-12-12T23:34:09.153Z,13.98
2022-12-12T23:36:36.819Z,13.75
2022-12-12T23:39:07.659Z,14.07
2022-12-12T23:41:36.838Z,13.35
2022-12-12T23:44:05.771Z,14.05
2022-12-12T23:46:36.064Z,14.73
2022-12-12T23:49:14.331Z,14.85
2022-12-12T23:51:56.512Z,15.13
2022-12-12T23:54:33.685Z,14.45
2022-12-12T23:57:02.856Z,14.80
2022-12-12T23:59:30.579Z,14.70
